sensor_id;sensor_type;location;lat;lon;timestamp;temperature;humidity
6293;DHT22;3179;54.350;10.102;2022-11-04T00:01:19;13.00;99.90
6293;DHT22;3179;54.350;10.102;2022-11-04T00:03:46;13.00;99.90
6293;DHT22;3179;54.350;10.102;2022-11-04T00:06:13;13.00;99.90
6293;DHT22;3179;54.350;10.102;2022-11-04T00:08:41;13.00;99.90
6293;DHT22;3179;54.350;10.102;2022-11-04T00:11:08;13.00;99.90
6293;DHT22;3179;54.350;10.102;2022-11-04T00:13:53;13.00;99.90
6293;DHT22;3179;54.350;10.102;2022-11-04T00:16:20;13.00;99.90
6293;DHT22;3179;54.350;10.102;2022-11-04T00:19:05;13.00;99.90
6293;DHT22;3179;54.350;10.102;2022-11-04T00:21:32;12.90;99.90
6293;DHT22;3179;54.350;10.102;2022-11-04T00:24:18;12.90;99.90
6293;DHT22;3179;54.350;10.102;2022-11-04T00:27:12;13.00;99.90
6293;DHT22;3179;54.350;10.102;2022-11-04T00:29:56;12.90;99.90
6293;DHT22;3179;54.350;10.102;2022-11-04T00:32:23;12.90;99.90
6293;DHT22;3179;54.350;10.102;2022-11-04T00:35:08;12.90;99.90
6293;DHT22;3179;54.350;10.102;2022-11-04T00:37:36;12.90;99.90
6293;DHT22;3179;54.350;10.102;2022-11-04T00:40:06;12.90;99.90
6293;DHT22;3179;54.350;10.102;2022-11-04T00:42:33;12.90;99.90
6293;DHT22;3179;54.350;10.102;2022-11-04T00:44:59;12.90;99.90
6293;DHT22;3179;54.350;10.102;2022-11-04T00:47:26;12.90;99.90
6293;DHT22;3179;54.350;10.102;2022-11-04T00:49:53;12.90;99.90
6293;DHT22;3179;54.350;10.102;2022-11-04T00:52:20;12.90;99.90
6293;DHT22;3179;54.350;10.102;2022-11-04T00:54:47;12.90;99.90
6293;DHT22;3179;54.350;10.102;2022-11-04T00:57:15;12.90;99.90
6293;DHT22;3179;54.350;10.102;2022-11-04T00:59:42;12.90;99.90
6293;DHT22;3179;54.350;10.102;2022-11-04T01:02:10;13.00;99.90
6293;DHT22;3179;54.350;10.102;2022-11-04T01:04:38;12.90;99.90
6293;DHT22;3179;54.350;10.102;2022-11-04T01:07:05;13.00;99.90
6293;DHT22;3179;54.350;10.102;2022-11-04T01:09:32;13.00;99.90
6293;DHT22;3179;54.350;10.102;2022-11-04T01:11:58;13.00;99.90
6293;DHT22;3179;54.350;10.102;2022-11-04T01:14:27;13.00;99.90
6293;DHT22;3179;54.350;10.102;2022-11-04T01:16:53;13.00;99.90
6293;DHT22;3179;54.350;10.102;2022-11-04T01:19:20;13.00;99.90
6293;DHT22;3179;54.350;10.102;2022-11-04T01:21:50;13.00;99.90
6293;DHT22;3179;54.350;10.102;2022-11-04T01:24:17;13.00;99.90
6293;DHT22;3179;54.350;10.102;2022-11-04T01:26:44;13.00;99.90
6293;DHT22;3179;54.350;10.102;2022-11-04T01:29:11;13.00;99.90
6293;DHT22;3179;54.350;10.102;2022-11-04T01:31:39;13.00;99.90
6293;DHT22;3179;54.350;10.102;2022-11-04T01:34:06;13.00;99.90
6293;DHT22;3179;54.350;10.102;2022-11-04T01:36:34;13.00;99.90
6293;DHT22;3179;54.350;10.102;2022-11-04T01:39:00;13.00;99.90
6293;DHT22;3179;54.350;10.102;2022-11-04T01:41:29;13.00;99.90
6293;DHT22;3179;54.350;10.102;2022-11-04T01:43:58;13.00;99.90
6293;DHT22;3179;54.350;10.102;2022-11-04T01:46:33;12.90;99.90
6293;DHT22;3179;54.350;10.102;2022-11-04T01:49:12;13.00;99.90
6293;DHT22;3179;54.350;10.102;2022-11-04T01:51:45;13.00;99.90
6293;DHT22;3179;54.350;10.102;2022-11-04T01:54:13;12.90;99.90
6293;DHT22;3179;54.350;10.102;2022-11-04T01:56:40;13.00;99.90
6293;DHT22;3179;54.350;10.102;2022-11-04T01:59:15;13.00;99.90
6293;DHT22;3179;54.350;10.102;2022-11-04T02:01:45;13.00;99.90
6293;DHT22;3179;54.350;10.102;2022-11-04T02:04:14;13.00;99.90
6293;DHT22;3179;54.350;10.102;2022-11-04T02:06:56;12.90;99.90
6293;DHT22;3179;54.350;10.102;2022-11-04T02:09:25;12.90;99.90
6293;DHT22;3179;54.350;10.102;2022-11-04T02:11:53;12.90;99.90
6293;DHT22;3179;54.350;10.102;2022-11-04T02:14:53;12.90;99.90
6293;DHT22;3179;54.350;10.102;2022-11-04T02:17:35;12.90;99.90
6293;DHT22;3179;54.350;10.102;2022-11-04T02:20:19;13.00;99.90
6293;DHT22;3179;54.350;10.102;2022-11-04T02:23:04;12.90;99.90
6293;DHT22;3179;54.350;10.102;2022-11-04T02:25:48;12.90;99.90
6293;DHT22;3179;54.350;10.102;2022-11-04T02:28:37;13.00;99.90
6293;DHT22;3179;54.350;10.102;2022-11-04T02:31:11;12.90;99.90
6293;DHT22;3179;54.350;10.102;2022-11-04T02:33:46;12.90;99.90
6293;DHT22;3179;54.350;10.102;2022-11-04T02:36:22;12.90;99.90
6293;DHT22;3179;54.350;10.102;2022-11-04T02:38:56;12.90;99.90
6293;DHT22;3179;54.350;10.102;2022-11-04T02:41:29;12.90;99.90
6293;DHT22;3179;54.350;10.102;2022-11-04T02:44:03;12.90;99.90
6293;DHT22;3179;54.350;10.102;2022-11-04T02:46:36;12.90;99.90
6293;DHT22;3179;54.350;10.102;2022-11-04T02:49:09;12.90;99.90
6293;DHT22;3179;54.350;10.102;2022-11-04T02:51:40;13.00;99.90
6293;DHT22;3179;54.350;10.102;2022-11-04T02:54:10;13.00;99.90
6293;DHT22;3179;54.350;10.102;2022-11-04T02:56:42;13.00;99.90
6293;DHT22;3179;54.350;10.102;2022-11-04T02:59:15;12.90;99.90
6293;DHT22;3179;54.350;10.102;2022-11-04T03:01:45;12.90;99.90
6293;DHT22;3179;54.350;10.102;2022-11-04T03:04:16;12.90;99.90
6293;DHT22;3179;54.350;10.102;2022-11-04T03:06:46;12.90;99.90
6293;DHT22;3179;54.350;10.102;2022-11-04T03:09:16;12.90;99.90
6293;DHT22;3179;54.350;10.102;2022-11-04T03:11:47;12.90;99.90
6293;DHT22;3179;54.350;10.102;2022-11-04T03:14:18;12.90;99.90
6293;DHT22;3179;54.350;10.102;2022-11-04T03:16:49;12.90;99.90
6293;DHT22;3179;54.350;10.102;2022-11-04T03:19:22;12.90;99.90
6293;DHT22;3179;54.350;10.102;2022-11-04T03:21:56;12.90;99.90
6293;DHT22;3179;54.350;10.102;2022-11-04T03:24:23;12.90;99.90
6293;DHT22;3179;54.350;10.102;2022-11-04T03:26:54;12.90;99.90
6293;DHT22;3179;54.350;10.102;2022-11-04T03:29:29;12.90;99.90
6293;DHT22;3179;54.350;10.102;2022-11-04T03:32:04;12.90;99.90
6293;DHT22;3179;54.350;10.102;2022-11-04T03:34:33;12.90;99.90
6293;DHT22;3179;54.350;10.102;2022-11-04T03:37:00;12.90;99.90
6293;DHT22;3179;54.350;10.102;2022-11-04T03:39:27;12.90;99.90
6293;DHT22;3179;54.350;10.102;2022-11-04T03:41:55;12.90;99.90
6293;DHT22;3179;54.350;10.102;2022-11-04T03:44:23;12.90;99.90
6293;DHT22;3179;54.350;10.102;2022-11-04T03:46:50;12.90;99.90
6293;DHT22;3179;54.350;10.102;2022-11-04T03:49:20;12.90;99.90
6293;DHT22;3179;54.350;10.102;2022-11-04T03:51:48;12.90;99.90
6293;DHT22;3179;54.350;10.102;2022-11-04T03:54:15;12.90;99.90
6293;DHT22;3179;54.350;10.102;2022-11-04T03:57:03;12.90;99.90
6293;DHT22;3179;54.350;10.102;2022-11-04T04:00:00;12.90;99.90
6293;DHT22;3179;54.350;10.102;2022-11-04T04:02:34;12.90;99.90
6293;DHT22;3179;54.350;10.102;2022-11-04T04:05:10;12.90;99.90
6293;DHT22;3179;54.350;10.102;2022-11-04T04:07:43;12.90;99.90
6293;DHT22;3179;54.350;10.102;2022-11-04T04:10:13;12.90;99.90
6293;DHT22;3179;54.350;10.102;2022-11-04T04:13:13;12.90;99.90
6293;DHT22;3179;54.350;10.102;2022-11-04T04:15:45;12.90;99.90
6293;DHT22;3179;54.350;10.102;2022-11-04T04:18:15;12.90;99.90
6293;DHT22;3179;54.350;10.102;2022-11-04T04:20:46;12.90;99.90
6293;DHT22;3179;54.350;10.102;2022-11-04T04:23:16;12.90;99.90
6293;DHT22;3179;54.350;10.102;2022-11-04T04:26:08;12.90;99.90
6293;DHT22;3179;54.350;10.102;2022-11-04T04:28:55;12.90;99.90
6293;DHT22;3179;54.350;10.102;2022-11-04T04:31:23;12.90;99.90
6293;DHT22;3179;54.350;10.102;2022-11-04T04:34:08;12.90;99.90
6293;DHT22;3179;54.350;10.102;2022-11-04T04:36:42;12.90;99.90
6293;DHT22;3179;54.350;10.102;2022-11-04T04:39:11;12.90;99.90
6293;DHT22;3179;54.350;10.102;2022-11-04T04:41:57;12.90;99.90
6293;DHT22;3179;54.350;10.102;2022-11-04T04:44:42;12.90;99.90
6293;DHT22;3179;54.350;10.102;2022-11-04T04:47:32;12.90;99.90
6293;DHT22;3179;54.350;10.102;2022-11-04T04:50:00;12.90;99.90
6293;DHT22;3179;54.350;10.102;2022-11-04T04:52:30;12.90;99.90
6293;DHT22;3179;54.350;10.102;2022-11-04T04:54:57;12.90;99.90
6293;DHT22;3179;54.350;10.102;2022-11-04T04:57:24;12.90;99.90
6293;DHT22;3179;54.350;10.102;2022-11-04T04:59:51;12.90;99.90
6293;DHT22;3179;54.350;10.102;2022-11-04T05:02:18;12.90;99.90
6293;DHT22;3179;54.350;10.102;2022-11-04T05:04:44;12.90;99.90
6293;DHT22;3179;54.350;10.102;2022-11-04T05:07:11;12.90;99.90
6293;DHT22;3179;54.350;10.102;2022-11-04T05:09:39;12.90;99.90
6293;DHT22;3179;54.350;10.102;2022-11-04T05:12:06;12.90;99.90
6293;DHT22;3179;54.350;10.102;2022-11-04T05:14:34;12.90;99.90
6293;DHT22;3179;54.350;10.102;2022-11-04T05:17:01;12.90;99.90
6293;DHT22;3179;54.350;10.102;2022-11-04T05:19:28;12.90;99.90
6293;DHT22;3179;54.350;10.102;2022-11-04T05:21:54;12.90;99.90
6293;DHT22;3179;54.350;10.102;2022-11-04T05:24:21;12.90;99.90
6293;DHT22;3179;54.350;10.102;2022-11-04T05:26:49;12.90;99.90
6293;DHT22;3179;54.350;10.102;2022-11-04T05:29:16;12.90;99.90
6293;DHT22;3179;54.350;10.102;2022-11-04T05:31:43;12.90;99.90
6293;DHT22;3179;54.350;10.102;2022-11-04T05:34:10;12.90;99.90
6293;DHT22;3179;54.350;10.102;2022-11-04T05:36:37;12.90;99.90
6293;DHT22;3179;54.350;10.102;2022-11-04T05:39:04;12.90;99.90
6293;DHT22;3179;54.350;10.102;2022-11-04T05:41:32;12.90;99.90
6293;DHT22;3179;54.350;10.102;2022-11-04T05:44:01;12.90;99.90
6293;DHT22;3179;54.350;10.102;2022-11-04T05:46:30;12.90;99.90
6293;DHT22;3179;54.350;10.102;2022-11-04T05:48:56;13.00;99.90
6293;DHT22;3179;54.350;10.102;2022-11-04T05:51:26;12.90;99.90
6293;DHT22;3179;54.350;10.102;2022-11-04T05:53:53;12.90;99.90
6293;DHT22;3179;54.350;10.102;2022-11-04T05:56:20;12.90;99.90
6293;DHT22;3179;54.350;10.102;2022-11-04T05:58:46;12.90;99.90
6293;DHT22;3179;54.350;10.102;2022-11-04T06:01:25;12.90;99.90
6293;DHT22;3179;54.350;10.102;2022-11-04T06:03:52;12.90;99.90
6293;DHT22;3179;54.350;10.102;2022-11-04T06:06:20;12.90;99.90
6293;DHT22;3179;54.350;10.102;2022-11-04T06:08:48;12.90;99.90
6293;DHT22;3179;54.350;10.102;2022-11-04T06:11:14;12.90;99.90
6293;DHT22;3179;54.350;10.102;2022-11-04T06:13:41;12.90;99.90
6293;DHT22;3179;54.350;10.102;2022-11-04T06:16:08;12.90;99.90
6293;DHT22;3179;54.350;10.102;2022-11-04T06:18:36;12.90;99.90
6293;DHT22;3179;54.350;10.102;2022-11-04T06:21:07;12.90;99.90
6293;DHT22;3179;54.350;10.102;2022-11-04T06:23:34;12.90;99.90
6293;DHT22;3179;54.350;10.102;2022-11-04T06:26:01;12.90;99.90
6293;DHT22;3179;54.350;10.102;2022-11-04T06:28:28;12.90;99.90
6293;DHT22;3179;54.350;10.102;2022-11-04T06:30:56;12.90;99.90
6293;DHT22;3179;54.350;10.102;2022-11-04T06:33:23;12.90;99.90
6293;DHT22;3179;54.350;10.102;2022-11-04T06:35:51;12.90;99.90
6293;DHT22;3179;54.350;10.102;2022-11-04T06:38:18;12.90;99.90
6293;DHT22;3179;54.350;10.102;2022-11-04T06:40:44;12.80;99.90
6293;DHT22;3179;54.350;10.102;2022-11-04T06:43:11;12.80;99.90
6293;DHT22;3179;54.350;10.102;2022-11-04T06:45:38;12.80;99.90
6293;DHT22;3179;54.350;10.102;2022-11-04T06:48:05;12.80;99.90
6293;DHT22;3179;54.350;10.102;2022-11-04T06:50:32;12.80;99.90
6293;DHT22;3179;54.350;10.102;2022-11-04T06:53:00;12.80;99.90
6293;DHT22;3179;54.350;10.102;2022-11-04T06:55:26;12.80;99.90
6293;DHT22;3179;54.350;10.102;2022-11-04T06:57:53;12.80;99.90
6293;DHT22;3179;54.350;10.102;2022-11-04T07:00:20;12.80;99.90
6293;DHT22;3179;54.350;10.102;2022-11-04T07:02:47;12.80;99.90
6293;DHT22;3179;54.350;10.102;2022-11-04T07:05:14;12.80;99.90
6293;DHT22;3179;54.350;10.102;2022-11-04T07:07:40;12.80;99.90
6293;DHT22;3179;54.350;10.102;2022-11-04T07:10:09;12.80;99.90
6293;DHT22;3179;54.350;10.102;2022-11-04T07:12:36;12.80;99.90
6293;DHT22;3179;54.350;10.102;2022-11-04T07:15:03;12.80;99.90
6293;DHT22;3179;54.350;10.102;2022-11-04T07:17:30;12.80;99.90
6293;DHT22;3179;54.350;10.102;2022-11-04T07:19:57;12.80;99.90
6293;DHT22;3179;54.350;10.102;2022-11-04T07:22:23;12.80;99.90
6293;DHT22;3179;54.350;10.102;2022-11-04T07:24:50;12.80;99.90
6293;DHT22;3179;54.350;10.102;2022-11-04T07:27:18;12.80;99.90
6293;DHT22;3179;54.350;10.102;2022-11-04T07:29:45;12.90;99.90
6293;DHT22;3179;54.350;10.102;2022-11-04T07:32:12;12.90;99.90
6293;DHT22;3179;54.350;10.102;2022-11-04T07:34:38;12.80;99.90
6293;DHT22;3179;54.350;10.102;2022-11-04T07:37:05;12.80;99.90
6293;DHT22;3179;54.350;10.102;2022-11-04T07:39:32;12.90;99.90
6293;DHT22;3179;54.350;10.102;2022-11-04T07:41:59;12.90;99.90
6293;DHT22;3179;54.350;10.102;2022-11-04T07:44:27;12.90;99.90
6293;DHT22;3179;54.350;10.102;2022-11-04T07:46:54;12.90;99.90
6293;DHT22;3179;54.350;10.102;2022-11-04T07:49:21;12.90;99.90
6293;DHT22;3179;54.350;10.102;2022-11-04T07:51:47;12.90;99.90
6293;DHT22;3179;54.350;10.102;2022-11-04T07:54:14;12.90;99.90
6293;DHT22;3179;54.350;10.102;2022-11-04T07:56:41;12.90;99.90
6293;DHT22;3179;54.350;10.102;2022-11-04T07:59:08;12.90;99.90
6293;DHT22;3179;54.350;10.102;2022-11-04T08:01:36;12.90;99.90
6293;DHT22;3179;54.350;10.102;2022-11-04T08:04:03;12.90;99.90
6293;DHT22;3179;54.350;10.102;2022-11-04T08:06:31;12.90;99.90
6293;DHT22;3179;54.350;10.102;2022-11-04T08:08:58;13.00;99.90
6293;DHT22;3179;54.350;10.102;2022-11-04T08:11:25;13.00;99.90
6293;DHT22;3179;54.350;10.102;2022-11-04T08:13:53;13.00;99.90
6293;DHT22;3179;54.350;10.102;2022-11-04T08:16:22;13.00;99.90
6293;DHT22;3179;54.350;10.102;2022-11-04T08:18:51;13.00;99.90
6293;DHT22;3179;54.350;10.102;2022-11-04T08:21:18;13.00;99.90
6293;DHT22;3179;54.350;10.102;2022-11-04T08:23:45;13.00;99.90
6293;DHT22;3179;54.350;10.102;2022-11-04T08:26:15;13.00;99.90
6293;DHT22;3179;54.350;10.102;2022-11-04T08:28:42;13.00;99.90
6293;DHT22;3179;54.350;10.102;2022-11-04T08:31:11;13.00;99.90
6293;DHT22;3179;54.350;10.102;2022-11-04T08:33:39;13.00;99.90
6293;DHT22;3179;54.350;10.102;2022-11-04T08:36:09;13.10;99.90
6293;DHT22;3179;54.350;10.102;2022-11-04T08:38:37;13.10;99.90
6293;DHT22;3179;54.350;10.102;2022-11-04T08:41:06;13.10;99.90
6293;DHT22;3179;54.350;10.102;2022-11-04T08:43:34;13.10;99.90
6293;DHT22;3179;54.350;10.102;2022-11-04T08:46:02;13.10;99.90
6293;DHT22;3179;54.350;10.102;2022-11-04T08:48:29;13.10;99.90
6293;DHT22;3179;54.350;10.102;2022-11-04T08:50:57;13.20;99.90
6293;DHT22;3179;54.350;10.102;2022-11-04T08:53:25;13.20;99.90
6293;DHT22;3179;54.350;10.102;2022-11-04T08:55:53;13.20;99.90
6293;DHT22;3179;54.350;10.102;2022-11-04T08:58:20;13.20;99.90
6293;DHT22;3179;54.350;10.102;2022-11-04T09:00:48;13.20;99.90
6293;DHT22;3179;54.350;10.102;2022-11-04T09:03:15;13.20;99.90
6293;DHT22;3179;54.350;10.102;2022-11-04T09:05:42;13.20;99.90
6293;DHT22;3179;54.350;10.102;2022-11-04T09:08:15;13.20;99.90
6293;DHT22;3179;54.350;10.102;2022-11-04T09:10:45;13.20;99.90
6293;DHT22;3179;54.350;10.102;2022-11-04T09:13:12;13.20;99.90
6293;DHT22;3179;54.350;10.102;2022-11-04T09:15:40;13.20;99.90
6293;DHT22;3179;54.350;10.102;2022-11-04T09:18:07;13.20;99.90
6293;DHT22;3179;54.350;10.102;2022-11-04T09:20:34;13.20;99.90
6293;DHT22;3179;54.350;10.102;2022-11-04T09:23:03;13.30;99.90
6293;DHT22;3179;54.350;10.102;2022-11-04T09:25:29;13.30;99.90
6293;DHT22;3179;54.350;10.102;2022-11-04T09:27:59;13.30;99.90
6293;DHT22;3179;54.350;10.102;2022-11-04T09:30:26;13.30;99.90
6293;DHT22;3179;54.350;10.102;2022-11-04T09:32:53;13.30;99.90
6293;DHT22;3179;54.350;10.102;2022-11-04T09:35:20;13.40;99.90
6293;DHT22;3179;54.350;10.102;2022-11-04T09:37:47;13.40;99.90
6293;DHT22;3179;54.350;10.102;2022-11-04T09:40:16;13.40;99.90
6293;DHT22;3179;54.350;10.102;2022-11-04T09:42:54;13.40;99.90
6293;DHT22;3179;54.350;10.102;2022-11-04T09:45:27;13.40;99.90
6293;DHT22;3179;54.350;10.102;2022-11-04T09:47:57;13.40;99.90
6293;DHT22;3179;54.350;10.102;2022-11-04T09:50:27;13.50;99.90
6293;DHT22;3179;54.350;10.102;2022-11-04T09:53:00;13.40;99.90
6293;DHT22;3179;54.350;10.102;2022-11-04T09:55:31;13.40;99.90
6293;DHT22;3179;54.350;10.102;2022-11-04T09:58:00;13.40;99.90
6293;DHT22;3179;54.350;10.102;2022-11-04T10:00:31;13.40;99.90
6293;DHT22;3179;54.350;10.102;2022-11-04T10:03:11;13.40;99.90
6293;DHT22;3179;54.350;10.102;2022-11-04T10:05:54;13.40;99.90
6293;DHT22;3179;54.350;10.102;2022-11-04T10:08:35;13.50;99.90
6293;DHT22;3179;54.350;10.102;2022-11-04T10:11:11;13.50;99.90
6293;DHT22;3179;54.350;10.102;2022-11-04T10:13:48;13.50;99.90
6293;DHT22;3179;54.350;10.102;2022-11-04T10:16:24;13.50;99.90
6293;DHT22;3179;54.350;10.102;2022-11-04T10:19:06;13.40;99.90
6293;DHT22;3179;54.350;10.102;2022-11-04T10:21:40;13.40;99.90
6293;DHT22;3179;54.350;10.102;2022-11-04T10:24:17;13.40;99.90
6293;DHT22;3179;54.350;10.102;2022-11-04T10:26:46;13.40;99.90
6293;DHT22;3179;54.350;10.102;2022-11-04T10:29:20;13.40;99.90
6293;DHT22;3179;54.350;10.102;2022-11-04T10:31:51;13.40;99.90
6293;DHT22;3179;54.350;10.102;2022-11-04T10:34:27;13.40;99.90
6293;DHT22;3179;54.350;10.102;2022-11-04T10:36:56;13.50;99.90
6293;DHT22;3179;54.350;10.102;2022-11-04T10:39:27;13.50;99.90
6293;DHT22;3179;54.350;10.102;2022-11-04T10:41:55;13.60;99.90
6293;DHT22;3179;54.350;10.102;2022-11-04T10:44:25;13.60;99.90
6293;DHT22;3179;54.350;10.102;2022-11-04T10:47:01;13.70;99.90
6293;DHT22;3179;54.350;10.102;2022-11-04T10:49:48;13.70;99.90
6293;DHT22;3179;54.350;10.102;2022-11-04T10:52:17;13.80;99.90
6293;DHT22;3179;54.350;10.102;2022-11-04T10:54:45;13.80;99.90
6293;DHT22;3179;54.350;10.102;2022-11-04T10:57:16;13.80;99.90
6293;DHT22;3179;54.350;10.102;2022-11-04T10:59:52;13.90;99.90
6293;DHT22;3179;54.350;10.102;2022-11-04T11:02:42;13.90;99.90
6293;DHT22;3179;54.350;10.102;2022-11-04T11:05:20;14.00;99.90
6293;DHT22;3179;54.350;10.102;2022-11-04T11:07:50;14.00;99.90
6293;DHT22;3179;54.350;10.102;2022-11-04T11:10:19;14.00;99.90
6293;DHT22;3179;54.350;10.102;2022-11-04T11:12:53;14.00;99.90
6293;DHT22;3179;54.350;10.102;2022-11-04T11:15:27;13.90;99.90
6293;DHT22;3179;54.350;10.102;2022-11-04T11:18:00;13.90;99.90
6293;DHT22;3179;54.350;10.102;2022-11-04T11:20:29;14.00;99.90
6293;DHT22;3179;54.350;10.102;2022-11-04T11:22:58;14.00;99.90
6293;DHT22;3179;54.350;10.102;2022-11-04T11:25:27;14.00;99.90
6293;DHT22;3179;54.350;10.102;2022-11-04T11:27:56;14.00;99.90
6293;DHT22;3179;54.350;10.102;2022-11-04T11:30:26;13.90;99.90
6293;DHT22;3179;54.350;10.102;2022-11-04T11:33:00;14.00;99.90
6293;DHT22;3179;54.350;10.102;2022-11-04T11:35:32;14.00;99.90
6293;DHT22;3179;54.350;10.102;2022-11-04T11:38:14;14.00;99.90
6293;DHT22;3179;54.350;10.102;2022-11-04T11:40:44;14.00;99.90
6293;DHT22;3179;54.350;10.102;2022-11-04T11:43:19;14.00;99.90
6293;DHT22;3179;54.350;10.102;2022-11-04T11:45:48;14.00;99.90
6293;DHT22;3179;54.350;10.102;2022-11-04T11:48:29;14.00;99.90
6293;DHT22;3179;54.350;10.102;2022-11-04T11:50:57;14.00;99.90
6293;DHT22;3179;54.350;10.102;2022-11-04T11:53:26;14.00;99.90
6293;DHT22;3179;54.350;10.102;2022-11-04T11:55:58;14.00;99.90
6293;DHT22;3179;54.350;10.102;2022-11-04T11:58:33;14.00;99.90
6293;DHT22;3179;54.350;10.102;2022-11-04T12:01:05;14.00;99.90
6293;DHT22;3179;54.350;10.102;2022-11-04T12:03:37;14.00;99.90
6293;DHT22;3179;54.350;10.102;2022-11-04T12:06:20;14.00;99.90
6293;DHT22;3179;54.350;10.102;2022-11-04T12:08:59;14.10;99.90
6293;DHT22;3179;54.350;10.102;2022-11-04T12:11:34;14.00;99.90
6293;DHT22;3179;54.350;10.102;2022-11-04T12:14:05;14.00;99.90
6293;DHT22;3179;54.350;10.102;2022-11-04T12:16:41;14.00;99.90
6293;DHT22;3179;54.350;10.102;2022-11-04T12:19:23;14.00;99.90
6293;DHT22;3179;54.350;10.102;2022-11-04T12:21:58;14.00;99.90
6293;DHT22;3179;54.350;10.102;2022-11-04T12:24:35;13.90;99.90
6293;DHT22;3179;54.350;10.102;2022-11-04T12:27:09;13.90;99.90
6293;DHT22;3179;54.350;10.102;2022-11-04T12:29:49;13.90;99.90
6293;DHT22;3179;54.350;10.102;2022-11-04T12:32:29;13.90;99.90
6293;DHT22;3179;54.350;10.102;2022-11-04T12:35:14;13.80;99.90
6293;DHT22;3179;54.350;10.102;2022-11-04T12:37:54;13.80;99.90
6293;DHT22;3179;54.350;10.102;2022-11-04T12:40:27;13.80;99.90
6293;DHT22;3179;54.350;10.102;2022-11-04T12:43:08;13.80;99.90
6293;DHT22;3179;54.350;10.102;2022-11-04T12:45:46;13.80;99.90
6293;DHT22;3179;54.350;10.102;2022-11-04T12:48:29;13.80;99.90
6293;DHT22;3179;54.350;10.102;2022-11-04T12:51:04;13.80;99.90
6293;DHT22;3179;54.350;10.102;2022-11-04T12:53:57;13.70;99.90
6293;DHT22;3179;54.350;10.102;2022-11-04T12:56:33;13.80;99.90
6293;DHT22;3179;54.350;10.102;2022-11-04T12:59:31;13.70;99.90
6293;DHT22;3179;54.350;10.102;2022-11-04T13:02:09;13.80;99.90
6293;DHT22;3179;54.350;10.102;2022-11-04T13:04:46;13.80;99.90
6293;DHT22;3179;54.350;10.102;2022-11-04T13:07:19;13.80;99.90
6293;DHT22;3179;54.350;10.102;2022-11-04T13:09:50;13.80;99.90
6293;DHT22;3179;54.350;10.102;2022-11-04T13:12:21;13.80;99.90
6293;DHT22;3179;54.350;10.102;2022-11-04T13:14:52;13.80;99.90
6293;DHT22;3179;54.350;10.102;2022-11-04T13:17:24;13.90;99.90
6293;DHT22;3179;54.350;10.102;2022-11-04T13:19:53;13.90;99.90
6293;DHT22;3179;54.350;10.102;2022-11-04T13:22:26;14.00;99.90
6293;DHT22;3179;54.350;10.102;2022-11-04T13:24:57;14.00;99.90
6293;DHT22;3179;54.350;10.102;2022-11-04T13:27:26;14.10;99.90
6293;DHT22;3179;54.350;10.102;2022-11-04T13:30:06;14.10;99.90
6293;DHT22;3179;54.350;10.102;2022-11-04T13:32:39;14.20;99.90
6293;DHT22;3179;54.350;10.102;2022-11-04T13:35:12;14.20;99.90
6293;DHT22;3179;54.350;10.102;2022-11-04T13:37:52;14.20;99.90
6293;DHT22;3179;54.350;10.102;2022-11-04T13:40:25;14.20;99.90
6293;DHT22;3179;54.350;10.102;2022-11-04T13:43:04;14.20;99.90
6293;DHT22;3179;54.350;10.102;2022-11-04T13:45:54;14.20;99.90
6293;DHT22;3179;54.350;10.102;2022-11-04T13:48:25;14.20;99.90
6293;DHT22;3179;54.350;10.102;2022-11-04T13:50:58;14.10;99.90
6293;DHT22;3179;54.350;10.102;2022-11-04T13:53:44;14.10;99.90
6293;DHT22;3179;54.350;10.102;2022-11-04T13:56:26;14.10;99.90
6293;DHT22;3179;54.350;10.102;2022-11-04T13:58:55;14.10;99.90
6293;DHT22;3179;54.350;10.102;2022-11-04T14:01:27;14.10;99.90
6293;DHT22;3179;54.350;10.102;2022-11-04T14:04:02;14.00;99.90
6293;DHT22;3179;54.350;10.102;2022-11-04T14:06:46;14.00;99.90
6293;DHT22;3179;54.350;10.102;2022-11-04T14:12:32;14.00;99.90
6293;DHT22;3179;54.350;10.102;2022-11-04T14:15:09;14.00;99.90
6293;DHT22;3179;54.350;10.102;2022-11-04T14:17:59;14.00;99.90
6293;DHT22;3179;54.350;10.102;2022-11-04T14:20:30;14.00;99.90
6293;DHT22;3179;54.350;10.102;2022-11-04T14:22:58;14.00;99.90
6293;DHT22;3179;54.350;10.102;2022-11-04T14:25:33;13.90;99.90
6293;DHT22;3179;54.350;10.102;2022-11-04T14:28:15;13.90;99.90
6293;DHT22;3179;54.350;10.102;2022-11-04T14:30:45;13.90;99.90
6293;DHT22;3179;54.350;10.102;2022-11-04T14:36:15;13.90;99.90
6293;DHT22;3179;54.350;10.102;2022-11-04T14:38:52;13.90;99.90
6293;DHT22;3179;54.350;10.102;2022-11-04T14:41:29;13.80;99.90
6293;DHT22;3179;54.350;10.102;2022-11-04T14:44:00;13.80;99.90
6293;DHT22;3179;54.350;10.102;2022-11-04T14:46:31;13.80;99.90
6293;DHT22;3179;54.350;10.102;2022-11-04T14:48:59;13.80;99.90
6293;DHT22;3179;54.350;10.102;2022-11-04T14:51:28;13.80;99.90
6293;DHT22;3179;54.350;10.102;2022-11-04T14:54:02;13.80;99.90
6293;DHT22;3179;54.350;10.102;2022-11-04T14:56:31;13.80;99.90
6293;DHT22;3179;54.350;10.102;2022-11-04T14:59:00;13.70;99.90
6293;DHT22;3179;54.350;10.102;2022-11-04T15:01:29;13.70;99.90
6293;DHT22;3179;54.350;10.102;2022-11-04T15:04:04;13.70;99.90
6293;DHT22;3179;54.350;10.102;2022-11-04T15:06:31;13.70;99.90
6293;DHT22;3179;54.350;10.102;2022-11-04T15:08:58;13.70;99.90
6293;DHT22;3179;54.350;10.102;2022-11-04T15:11:27;13.70;99.90
6293;DHT22;3179;54.350;10.102;2022-11-04T15:14:19;13.70;99.90
6293;DHT22;3179;54.350;10.102;2022-11-04T15:16:48;13.60;99.90
6293;DHT22;3179;54.350;10.102;2022-11-04T15:19:21;13.60;99.90
6293;DHT22;3179;54.350;10.102;2022-11-04T15:21:50;13.60;99.90
6293;DHT22;3179;54.350;10.102;2022-11-04T15:24:17;13.60;99.90
6293;DHT22;3179;54.350;10.102;2022-11-04T15:26:48;13.50;99.90
6293;DHT22;3179;54.350;10.102;2022-11-04T15:29:20;13.50;99.90
6293;DHT22;3179;54.350;10.102;2022-11-04T15:31:53;13.50;99.90
6293;DHT22;3179;54.350;10.102;2022-11-04T15:34:21;13.50;99.90
6293;DHT22;3179;54.350;10.102;2022-11-04T15:36:48;13.40;99.90
6293;DHT22;3179;54.350;10.102;2022-11-04T15:39:18;13.40;99.90
6293;DHT22;3179;54.350;10.102;2022-11-04T15:41:48;13.40;99.90
6293;DHT22;3179;54.350;10.102;2022-11-04T15:44:36;13.40;99.90
6293;DHT22;3179;54.350;10.102;2022-11-04T15:47:20;13.40;99.90
6293;DHT22;3179;54.350;10.102;2022-11-04T15:49:49;13.40;99.90
6293;DHT22;3179;54.350;10.102;2022-11-04T15:52:19;13.30;99.90
6293;DHT22;3179;54.350;10.102;2022-11-04T15:54:47;13.30;99.90
6293;DHT22;3179;54.350;10.102;2022-11-04T15:57:17;13.30;99.90
6293;DHT22;3179;54.350;10.102;2022-11-04T15:59:49;13.30;99.90
6293;DHT22;3179;54.350;10.102;2022-11-04T16:02:23;13.30;99.90
6293;DHT22;3179;54.350;10.102;2022-11-04T16:05:05;13.30;99.90
6293;DHT22;3179;54.350;10.102;2022-11-04T16:07:37;13.20;99.90
6293;DHT22;3179;54.350;10.102;2022-11-04T16:10:26;13.20;99.90
6293;DHT22;3179;54.350;10.102;2022-11-04T16:12:56;13.20;99.90
6293;DHT22;3179;54.350;10.102;2022-11-04T16:15:32;13.20;99.90
6293;DHT22;3179;54.350;10.102;2022-11-04T16:18:00;13.20;99.90
6293;DHT22;3179;54.350;10.102;2022-11-04T16:20:28;13.10;99.90